sensor_id;sensor_type;location;lat;lon;timestamp;temperature;humidity
39779;DHT22;25454;49.878;8.618;2023-04-24T00:03:20;12.50;99.90
39779;DHT22;25454;49.878;8.618;2023-04-24T00:08:21;12.50;99.90
39779;DHT22;25454;49.878;8.618;2023-04-24T00:13:23;12.50;99.90
39779;DHT22;25454;49.878;8.618;2023-04-24T00:18:23;12.40;99.90
39779;DHT22;25454;49.878;8.618;2023-04-24T00:23:24;12.50;99.90
39779;DHT22;25454;49.878;8.618;2023-04-24T00:28:24;12.50;99.90
39779;DHT22;25454;49.878;8.618;2023-04-24T00:33:25;12.50;99.90
39779;DHT22;25454;49.878;8.618;2023-04-24T00:38:25;12.60;99.90
39779;DHT22;25454;49.878;8.618;2023-04-24T00:43:26;12.70;99.90
39779;DHT22;25454;49.878;8.618;2023-04-24T00:48:27;12.70;99.90
39779;DHT22;25454;49.878;8.618;2023-04-24T00:53:28;12.60;99.90
39779;DHT22;25454;49.878;8.618;2023-04-24T00:58:29;12.60;99.90
39779;DHT22;25454;49.878;8.618;2023-04-24T01:03:31;12.60;99.90
39779;DHT22;25454;49.878;8.618;2023-04-24T01:08:33;12.60;99.90
39779;DHT22;25454;49.878;8.618;2023-04-24T01:13:35;12.60;99.90
39779;DHT22;25454;49.878;8.618;2023-04-24T01:18:35;12.50;99.90
39779;DHT22;25454;49.878;8.618;2023-04-24T01:23:36;12.50;99.90
39779;DHT22;25454;49.878;8.618;2023-04-24T01:28:37;12.40;99.90
39779;DHT22;25454;49.878;8.618;2023-04-24T01:33:37;12.30;99.90
39779;DHT22;25454;49.878;8.618;2023-04-24T01:38:38;12.20;99.90
39779;DHT22;25454;49.878;8.618;2023-04-24T01:43:39;12.20;99.90
39779;DHT22;25454;49.878;8.618;2023-04-24T01:48:41;12.20;99.90
39779;DHT22;25454;49.878;8.618;2023-04-24T01:53:42;12.30;99.90
39779;DHT22;25454;49.878;8.618;2023-04-24T01:58:43;12.30;99.90
39779;DHT22;25454;49.878;8.618;2023-04-24T02:03:44;12.20;99.90
39779;DHT22;25454;49.878;8.618;2023-04-24T02:08:44;12.20;99.90
39779;DHT22;25454;49.878;8.618;2023-04-24T02:13:45;12.20;99.90
39779;DHT22;25454;49.878;8.618;2023-04-24T02:18:45;12.30;99.90
39779;DHT22;25454;49.878;8.618;2023-04-24T02:23:46;12.40;99.90
39779;DHT22;25454;49.878;8.618;2023-04-24T02:28:47;12.40;99.90
39779;DHT22;25454;49.878;8.618;2023-04-24T02:33:47;12.40;99.90
39779;DHT22;25454;49.878;8.618;2023-04-24T02:38:48;12.40;99.90
39779;DHT22;25454;49.878;8.618;2023-04-24T02:43:48;12.30;99.90
39779;DHT22;25454;49.878;8.618;2023-04-24T02:48:49;12.30;99.90
39779;DHT22;25454;49.878;8.618;2023-04-24T02:53:49;12.20;99.90
39779;DHT22;25454;49.878;8.618;2023-04-24T02:58:50;12.20;99.90
39779;DHT22;25454;49.878;8.618;2023-04-24T03:03:51;12.20;99.90
39779;DHT22;25454;49.878;8.618;2023-04-24T03:08:51;12.20;99.90
39779;DHT22;25454;49.878;8.618;2023-04-24T03:13:52;12.20;99.90
39779;DHT22;25454;49.878;8.618;2023-04-24T03:18:55;12.10;99.90
39779;DHT22;25454;49.878;8.618;2023-04-24T03:23:56;12.10;99.90
39779;DHT22;25454;49.878;8.618;2023-04-24T03:28:58;12.00;99.90
39779;DHT22;25454;49.878;8.618;2023-04-24T03:33:58;11.90;99.90
39779;DHT22;25454;49.878;8.618;2023-04-24T03:38:59;11.70;99.90
39779;DHT22;25454;49.878;8.618;2023-04-24T03:43:59;11.60;99.90
39779;DHT22;25454;49.878;8.618;2023-04-24T03:49:00;11.50;99.90
39779;DHT22;25454;49.878;8.618;2023-04-24T03:54:01;11.40;99.90
39779;DHT22;25454;49.878;8.618;2023-04-24T03:59:01;11.40;99.90
39779;DHT22;25454;49.878;8.618;2023-04-24T04:04:03;11.40;99.90
39779;DHT22;25454;49.878;8.618;2023-04-24T04:09:04;11.40;99.90
39779;DHT22;25454;49.878;8.618;2023-04-24T04:14:04;11.40;99.90
39779;DHT22;25454;49.878;8.618;2023-04-24T04:19:05;11.30;99.90
39779;DHT22;25454;49.878;8.618;2023-04-24T04:24:06;11.10;99.90
39779;DHT22;25454;49.878;8.618;2023-04-24T04:29:07;10.90;99.90
39779;DHT22;25454;49.878;8.618;2023-04-24T04:34:08;10.70;99.90
39779;DHT22;25454;49.878;8.618;2023-04-24T04:39:09;10.60;99.90
39779;DHT22;25454;49.878;8.618;2023-04-24T04:44:10;10.50;99.90
39779;DHT22;25454;49.878;8.618;2023-04-24T04:49:10;10.50;99.90
39779;DHT22;25454;49.878;8.618;2023-04-24T04:54:11;10.50;99.90
39779;DHT22;25454;49.878;8.618;2023-04-24T04:59:11;10.50;99.90
39779;DHT22;25454;49.878;8.618;2023-04-24T05:04:12;10.60;99.90
39779;DHT22;25454;49.878;8.618;2023-04-24T05:09:13;10.80;99.90
39779;DHT22;25454;49.878;8.618;2023-04-24T05:14:13;11.10;99.90
39779;DHT22;25454;49.878;8.618;2023-04-24T05:19:14;11.30;99.90
39779;DHT22;25454;49.878;8.618;2023-04-24T05:24:15;11.60;99.90
39779;DHT22;25454;49.878;8.618;2023-04-24T05:29:15;12.00;99.90
39779;DHT22;25454;49.878;8.618;2023-04-24T05:34:16;13.20;99.90
39779;DHT22;25454;49.878;8.618;2023-04-24T05:39:17;13.70;99.90
39779;DHT22;25454;49.878;8.618;2023-04-24T05:44:18;13.70;99.90
39779;DHT22;25454;49.878;8.618;2023-04-24T05:49:24;14.40;99.90
39779;DHT22;25454;49.878;8.618;2023-04-24T05:54:28;15.00;99.90
39779;DHT22;25454;49.878;8.618;2023-04-24T05:59:29;15.40;99.90
39779;DHT22;25454;49.878;8.618;2023-04-24T06:04:30;15.40;99.90
39779;DHT22;25454;49.878;8.618;2023-04-24T06:09:31;15.40;99.90
39779;DHT22;25454;49.878;8.618;2023-04-24T06:14:32;15.40;99.90
39779;DHT22;25454;49.878;8.618;2023-04-24T06:19:32;16.40;99.90
39779;DHT22;25454;49.878;8.618;2023-04-24T06:24:36;17.70;99.90
39779;DHT22;25454;49.878;8.618;2023-04-24T06:29:37;18.50;99.90
39779;DHT22;25454;49.878;8.618;2023-04-24T06:34:37;19.60;99.90
39779;DHT22;25454;49.878;8.618;2023-04-24T06:39:38;21.20;96.30
39779;DHT22;25454;49.878;8.618;2023-04-24T06:44:39;22.60;91.20
39779;DHT22;25454;49.878;8.618;2023-04-24T06:49:45;23.20;84.60
39779;DHT22;25454;49.878;8.618;2023-04-24T06:54:46;22.70;79.10
39779;DHT22;25454;49.878;8.618;2023-04-24T06:59:47;20.90;85.20
39779;DHT22;25454;49.878;8.618;2023-04-24T07:04:47;19.10;89.20
39779;DHT22;25454;49.878;8.618;2023-04-24T07:09:48;17.50;93.90
39779;DHT22;25454;49.878;8.618;2023-04-24T07:14:50;17.10;95.60
39779;DHT22;25454;49.878;8.618;2023-04-24T07:19:51;17.10;97.20
39779;DHT22;25454;49.878;8.618;2023-04-24T07:24:52;17.10;96.20
39779;DHT22;25454;49.878;8.618;2023-04-24T07:29:52;16.50;97.20
39779;DHT22;25454;49.878;8.618;2023-04-24T07:34:53;15.60;98.80
39779;DHT22;25454;49.878;8.618;2023-04-24T07:39:53;15.00;99.90
39779;DHT22;25454;49.878;8.618;2023-04-24T07:44:54;15.00;99.90
39779;DHT22;25454;49.878;8.618;2023-04-24T07:49:55;15.70;99.90
39779;DHT22;25454;49.878;8.618;2023-04-24T07:54:56;16.90;99.90
39779;DHT22;25454;49.878;8.618;2023-04-24T08:00:00;19.60;93.90
39779;DHT22;25454;49.878;8.618;2023-04-24T08:05:01;18.60;92.40
39779;DHT22;25454;49.878;8.618;2023-04-24T08:10:04;18.00;93.80
39779;DHT22;25454;49.878;8.618;2023-04-24T08:15:05;20.90;85.50
39779;DHT22;25454;49.878;8.618;2023-04-24T08:20:07;23.20;68.30
39779;DHT22;25454;49.878;8.618;2023-04-24T08:25:13;21.00;69.00
39779;DHT22;25454;49.878;8.618;2023-04-24T08:30:14;18.90;77.50
39779;DHT22;25454;49.878;8.618;2023-04-24T08:35:15;17.30;83.90
39779;DHT22;25454;49.878;8.618;2023-04-24T08:40:16;17.90;86.40
39779;DHT22;25454;49.878;8.618;2023-04-24T08:45:17;20.50;74.70
39779;DHT22;25454;49.878;8.618;2023-04-24T08:50:17;20.50;75.00
39779;DHT22;25454;49.878;8.618;2023-04-24T08:55:19;19.80;76.30
39779;DHT22;25454;49.878;8.618;2023-04-24T09:00:21;18.40;78.40
39779;DHT22;25454;49.878;8.618;2023-04-24T09:05:22;17.60;82.70
39779;DHT22;25454;49.878;8.618;2023-04-24T09:10:25;16.70;83.70
39779;DHT22;25454;49.878;8.618;2023-04-24T09:15:26;16.00;88.80
39779;DHT22;25454;49.878;8.618;2023-04-24T09:20:27;15.50;91.80
39779;DHT22;25454;49.878;8.618;2023-04-24T09:25:34;15.40;91.70
39779;DHT22;25454;49.878;8.618;2023-04-24T09:30:38;15.40;91.80
39779;DHT22;25454;49.878;8.618;2023-04-24T09:35:51;15.10;91.40
39779;DHT22;25454;49.878;8.618;2023-04-24T09:40:52;15.00;93.10
39779;DHT22;25454;49.878;8.618;2023-04-24T09:45:56;15.30;93.80
39779;DHT22;25454;49.878;8.618;2023-04-24T09:50:56;15.20;93.40
39779;DHT22;25454;49.878;8.618;2023-04-24T09:56:09;15.30;93.30
39779;DHT22;25454;49.878;8.618;2023-04-24T10:01:10;15.30;93.60
39779;DHT22;25454;49.878;8.618;2023-04-24T10:06:12;16.30;94.10
39779;DHT22;25454;49.878;8.618;2023-04-24T10:11:13;19.60;83.30
39779;DHT22;25454;49.878;8.618;2023-04-24T10:16:14;19.10;81.20
39779;DHT22;25454;49.878;8.618;2023-04-24T10:21:16;17.70;86.20
39779;DHT22;25454;49.878;8.618;2023-04-24T10:26:18;16.60;90.00
39779;DHT22;25454;49.878;8.618;2023-04-24T10:31:20;15.60;91.70
39779;DHT22;25454;49.878;8.618;2023-04-24T10:36:22;15.00;93.70
39779;DHT22;25454;49.878;8.618;2023-04-24T10:41:25;15.00;94.50
39779;DHT22;25454;49.878;8.618;2023-04-24T10:46:28;15.70;94.10
39779;DHT22;25454;49.878;8.618;2023-04-24T10:51:50;16.70;92.50
39779;DHT22;25454;49.878;8.618;2023-04-24T10:56:52;17.30;90.40
39779;DHT22;25454;49.878;8.618;2023-04-24T11:01:54;17.20;90.00
39779;DHT22;25454;49.878;8.618;2023-04-24T11:06:55;16.70;91.20
39779;DHT22;25454;49.878;8.618;2023-04-24T11:17:28;15.30;95.80
39779;DHT22;25454;49.878;8.618;2023-04-24T11:22:33;14.90;98.70
39779;DHT22;25454;49.878;8.618;2023-04-24T11:27:44;14.40;99.90
39779;DHT22;25454;49.878;8.618;2023-04-24T11:32:52;13.90;99.90
39779;DHT22;25454;49.878;8.618;2023-04-24T11:37:54;13.40;99.90
39779;DHT22;25454;49.878;8.618;2023-04-24T11:42:55;13.20;99.90
39779;DHT22;25454;49.878;8.618;2023-04-24T11:47:56;13.10;99.90
39779;DHT22;25454;49.878;8.618;2023-04-24T11:52:57;13.10;99.90
39779;DHT22;25454;49.878;8.618;2023-04-24T11:57:59;13.00;99.90
39779;DHT22;25454;49.878;8.618;2023-04-24T12:03:12;12.70;99.90
39779;DHT22;25454;49.878;8.618;2023-04-24T12:08:27;12.50;99.90
39779;DHT22;25454;49.878;8.618;2023-04-24T12:13:29;12.80;99.90
39779;DHT22;25454;49.878;8.618;2023-04-24T12:18:29;13.30;99.90
39779;DHT22;25454;49.878;8.618;2023-04-24T12:23:34;14.00;99.90
39779;DHT22;25454;49.878;8.618;2023-04-24T12:28:38;14.90;99.90
39779;DHT22;25454;49.878;8.618;2023-04-24T12:33:39;15.10;99.90
39779;DHT22;25454;49.878;8.618;2023-04-24T12:38:43;15.20;99.90
39779;DHT22;25454;49.878;8.618;2023-04-24T12:43:52;15.50;99.90
39779;DHT22;25454;49.878;8.618;2023-04-24T12:48:53;15.90;99.90
39779;DHT22;25454;49.878;8.618;2023-04-24T12:53:53;16.10;99.90
39779;DHT22;25454;49.878;8.618;2023-04-24T12:58:54;16.00;99.90
39779;DHT22;25454;49.878;8.618;2023-04-24T13:03:55;16.30;99.90
39779;DHT22;25454;49.878;8.618;2023-04-24T13:08:55;16.30;99.90
39779;DHT22;25454;49.878;8.618;2023-04-24T13:13:58;16.30;99.90
39779;DHT22;25454;49.878;8.618;2023-04-24T13:18:58;16.40;99.90
39779;DHT22;25454;49.878;8.618;2023-04-24T13:23:59;16.70;99.90
39779;DHT22;25454;49.878;8.618;2023-04-24T13:29:00;16.70;99.90
39779;DHT22;25454;49.878;8.618;2023-04-24T13:34:01;16.70;99.90
39779;DHT22;25454;49.878;8.618;2023-04-24T13:39:03;17.00;99.90
39779;DHT22;25454;49.878;8.618;2023-04-24T13:44:06;17.10;99.90
39779;DHT22;25454;49.878;8.618;2023-04-24T13:49:06;16.80;98.90
39779;DHT22;25454;49.878;8.618;2023-04-24T13:54:07;16.10;99.90
39779;DHT22;25454;49.878;8.618;2023-04-24T13:59:08;15.90;99.90
39779;DHT22;25454;49.878;8.618;2023-04-24T14:04:09;15.60;99.90
39779;DHT22;25454;49.878;8.618;2023-04-24T14:09:09;15.60;99.90
39779;DHT22;25454;49.878;8.618;2023-04-24T14:14:10;15.60;99.90
39779;DHT22;25454;49.878;8.618;2023-04-24T14:19:11;15.80;99.90
39779;DHT22;25454;49.878;8.618;2023-04-24T14:24:12;15.80;99.90
39779;DHT22;25454;49.878;8.618;2023-04-24T14:29:13;15.60;99.90
39779;DHT22;25454;49.878;8.618;2023-04-24T14:34:13;15.60;99.90
39779;DHT22;25454;49.878;8.618;2023-04-24T14:39:14;15.40;99.90
39779;DHT22;25454;49.878;8.618;2023-04-24T14:44:15;15.40;99.90
39779;DHT22;25454;49.878;8.618;2023-04-24T14:49:15;15.40;99.90
39779;DHT22;25454;49.878;8.618;2023-04-24T14:54:16;15.30;99.90
39779;DHT22;25454;49.878;8.618;2023-04-24T14:59:17;15.30;99.90
39779;DHT22;25454;49.878;8.618;2023-04-24T15:04:17;15.30;99.90
39779;DHT22;25454;49.878;8.618;2023-04-24T15:09:18;15.20;99.90
39779;DHT22;25454;49.878;8.618;2023-04-24T15:14:18;15.00;99.90
39779;DHT22;25454;49.878;8.618;2023-04-24T15:19:19;15.00;99.90
39779;DHT22;25454;49.878;8.618;2023-04-24T15:24:20;15.00;99.90
39779;DHT22;25454;49.878;8.618;2023-04-24T15:29:20;15.00;99.90
39779;DHT22;25454;49.878;8.618;2023-04-24T15:34:22;15.50;99.90
39779;DHT22;25454;49.878;8.618;2023-04-24T15:39:23;15.80;99.00
39779;DHT22;25454;49.878;8.618;2023-04-24T15:44:24;15.80;98.60
39779;DHT22;25454;49.878;8.618;2023-04-24T15:49:25;15.70;98.70
39779;DHT22;25454;49.878;8.618;2023-04-24T15:54:25;15.70;98.90
39779;DHT22;25454;49.878;8.618;2023-04-24T15:59:29;15.90;98.40
39779;DHT22;25454;49.878;8.618;2023-04-24T16:04:31;16.20;98.10
39779;DHT22;25454;49.878;8.618;2023-04-24T16:09:34;16.10;98.00
39779;DHT22;25454;49.878;8.618;2023-04-24T16:14:35;15.90;98.80
39779;DHT22;25454;49.878;8.618;2023-04-24T16:19:36;15.40;99.50
39779;DHT22;25454;49.878;8.618;2023-04-24T16:24:36;15.20;99.90
39779;DHT22;25454;49.878;8.618;2023-04-24T16:29:37;15.10;99.90
39779;DHT22;25454;49.878;8.618;2023-04-24T16:34:38;15.10;99.90
39779;DHT22;25454;49.878;8.618;2023-04-24T16:39:38;15.00;99.90
39779;DHT22;25454;49.878;8.618;2023-04-24T16:44:43;14.60;99.90
39779;DHT22;25454;49.878;8.618;2023-04-24T16:49:43;14.50;99.90
39779;DHT22;25454;49.878;8.618;2023-04-24T16:54:44;14.60;99.90
39779;DHT22;25454;49.878;8.618;2023-04-24T16:59:45;15.00;99.90
39779;DHT22;25454;49.878;8.618;2023-04-24T17:04:45;15.10;99.90
39779;DHT22;25454;49.878;8.618;2023-04-24T17:09:47;14.60;99.90
39779;DHT22;25454;49.878;8.618;2023-04-24T17:14:48;14.10;99.90
39779;DHT22;25454;49.878;8.618;2023-04-24T17:19:48;13.80;99.90
39779;DHT22;25454;49.878;8.618;2023-04-24T17:24:50;13.60;99.90
39779;DHT22;25454;49.878;8.618;2023-04-24T17:29:51;13.40;99.90
39779;DHT22;25454;49.878;8.618;2023-04-24T17:34:51;13.20;99.90
39779;DHT22;25454;49.878;8.618;2023-04-24T17:39:52;12.90;99.90
39779;DHT22;25454;49.878;8.618;2023-04-24T17:44:54;12.60;99.90
39779;DHT22;25454;49.878;8.618;2023-04-24T17:49:55;12.40;99.90
39779;DHT22;25454;49.878;8.618;2023-04-24T17:54:55;12.20;99.90
39779;DHT22;25454;49.878;8.618;2023-04-24T17:59:56;11.90;99.90
39779;DHT22;25454;49.878;8.618;2023-04-24T18:04:57;11.60;99.90
39779;DHT22;25454;49.878;8.618;2023-04-24T18:09:57;11.40;99.90
39779;DHT22;25454;49.878;8.618;2023-04-24T18:14:58;11.40;99.90
39779;DHT22;25454;49.878;8.618;2023-04-24T18:19:59;11.30;99.90
39779;DHT22;25454;49.878;8.618;2023-04-24T18:24:59;11.20;99.90
39779;DHT22;25454;49.878;8.618;2023-04-24T18:30:01;11.20;99.90
39779;DHT22;25454;49.878;8.618;2023-04-24T18:35:02;11.20;99.90
39779;DHT22;25454;49.878;8.618;2023-04-24T18:40:03;11.10;99.90
39779;DHT22;25454;49.878;8.618;2023-04-24T18:45:05;11.20;99.90
39779;DHT22;25454;49.878;8.618;2023-04-24T18:50:06;11.20;99.90
39779;DHT22;25454;49.878;8.618;2023-04-24T18:55:07;11.30;99.90
39779;DHT22;25454;49.878;8.618;2023-04-24T19:00:09;11.30;99.90
39779;DHT22;25454;49.878;8.618;2023-04-24T19:05:10;11.30;99.90
39779;DHT22;25454;49.878;8.618;2023-04-24T19:10:11;11.30;99.90
39779;DHT22;25454;49.878;8.618;2023-04-24T19:15:12;11.30;99.90
39779;DHT22;25454;49.878;8.618;2023-04-24T19:20:13;11.30;99.90
39779;DHT22;25454;49.878;8.618;2023-04-24T19:25:13;11.30;99.90
39779;DHT22;25454;49.878;8.618;2023-04-24T19:30:14;11.20;99.90
39779;DHT22;25454;49.878;8.618;2023-04-24T19:35:15;11.20;99.90
39779;DHT22;25454;49.878;8.618;2023-04-24T19:40:16;11.20;99.90
39779;DHT22;25454;49.878;8.618;2023-04-24T19:45:16;11.10;99.90
39779;DHT22;25454;49.878;8.618;2023-04-24T19:50:17;11.20;99.90
39779;DHT22;25454;49.878;8.618;2023-04-24T19:55:19;11.10;99.90
39779;DHT22;25454;49.878;8.618;2023-04-24T20:00:19;11.10;99.90
39779;DHT22;25454;49.878;8.618;2023-04-24T20:05:20;11.10;99.90
39779;DHT22;25454;49.878;8.618;2023-04-24T20:10:21;11.10;99.90
39779;DHT22;25454;49.878;8.618;2023-04-24T20:15:21;11.20;99.90
39779;DHT22;25454;49.878;8.618;2023-04-24T20:20:22;11.10;99.90
39779;DHT22;25454;49.878;8.618;2023-04-24T20:25:23;11.20;99.90
39779;DHT22;25454;49.878;8.618;2023-04-24T20:30:23;11.20;99.90
39779;DHT22;25454;49.878;8.618;2023-04-24T20:35:24;11.20;99.90
39779;DHT22;25454;49.878;8.618;2023-04-24T20:40:26;11.10;99.90
39779;DHT22;25454;49.878;8.618;2023-04-24T20:45:29;11.10;99.90
39779;DHT22;25454;49.878;8.618;2023-04-24T20:50:29;11.10;99.90
39779;DHT22;25454;49.878;8.618;2023-04-24T20:55:32;11.10;99.90
39779;DHT22;25454;49.878;8.618;2023-04-24T21:00:36;11.00;99.90
39779;DHT22;25454;49.878;8.618;2023-04-24T21:05:36;11.00;99.90
39779;DHT22;25454;49.878;8.618;2023-04-24T21:10:37;11.00;99.90
39779;DHT22;25454;49.878;8.618;2023-04-24T21:15:38;11.10;99.90
39779;DHT22;25454;49.878;8.618;2023-04-24T21:20:39;11.00;99.90
39779;DHT22;25454;49.878;8.618;2023-04-24T21:25:39;11.00;99.90
39779;DHT22;25454;49.878;8.618;2023-04-24T21:30:51;11.00;99.90
39779;DHT22;25454;49.878;8.618;2023-04-24T21:35:52;11.00;99.90
39779;DHT22;25454;49.878;8.618;2023-04-24T21:40:53;11.00;99.90
39779;DHT22;25454;49.878;8.618;2023-04-24T21:45:54;11.10;99.90
39779;DHT22;25454;49.878;8.618;2023-04-24T21:50:59;11.10;99.90
39779;DHT22;25454;49.878;8.618;2023-04-24T21:55:59;11.10;99.90
39779;DHT22;25454;49.878;8.618;2023-04-24T22:01:00;11.10;99.90
39779;DHT22;25454;49.878;8.618;2023-04-24T22:06:01;11.00;99.90
39779;DHT22;25454;49.878;8.618;2023-04-24T22:11:01;11.00;99.90
39779;DHT22;25454;49.878;8.618;2023-04-24T22:16:02;11.00;99.90
39779;DHT22;25454;49.878;8.618;2023-04-24T22:21:05;11.00;99.90
39779;DHT22;25454;49.878;8.618;2023-04-24T22:26:06;11.00;99.90
39779;DHT22;25454;49.878;8.618;2023-04-24T22:31:07;11.00;99.90
39779;DHT22;25454;49.878;8.618;2023-04-24T22:36:08;11.00;99.90
39779;DHT22;25454;49.878;8.618;2023-04-24T22:41:08;10.90;99.90
39779;DHT22;25454;49.878;8.618;2023-04-24T22:46:15;10.90;99.90
39779;DHT22;25454;49.878;8.618;2023-04-24T22:51:16;10.90;99.90
39779;DHT22;25454;49.878;8.618;2023-04-24T22:56:20;10.70;99.90
39779;DHT22;25454;49.878;8.618;2023-04-24T23:01:21;10.60;99.90
39779;DHT22;25454;49.878;8.618;2023-04-24T23:06:21;10.40;99.90
39779;DHT22;25454;49.878;8.618;2023-04-24T23:11:22;10.30;99.90
39779;DHT22;25454;49.878;8.618;2023-04-24T23:16:23;10.30;99.90
39779;DHT22;25454;49.878;8.618;2023-04-24T23:21:23;10.30;99.90
39779;DHT22;25454;49.878;8.618;2023-04-24T23:26:24;10.20;99.90
39779;DHT22;25454;49.878;8.618;2023-04-24T23:31:25;10.20;99.90
39779;DHT22;25454;49.878;8.618;2023-04-24T23:36:25;10.30;99.90
39779;DHT22;25454;49.878;8.618;2023-04-24T23:41:26;10.20;99.90
39779;DHT22;25454;49.878;8.618;2023-04-24T23:46:27;10.10;99.90
39779;DHT22;25454;49.878;8.618;2023-04-24T23:51:27;10.10;99.90
39779;DHT22;25454;49.878;8.618;2023-04-24T23:56:28;10.00;99.90
